Latest Weather Observations for Sydney Harbour

IDN60801

Issued at 6:03 pm EST Friday 1 July 2022 (issued every 10 minutes, with the page automatically refreshed every 10 minutes)

About weather observations | Map of weather stations | Latest weather observations for NSW | Other Formats
Station Details ID: 066196 Name: WEDDING CAKE WEST Lat: -33.84 Lon: 151.26 Height: 6.0 m
Data from the previous 72 hours. | See also: Recent months at Sydney Harbour
Date/Time
EST
Temp
°C
App
Temp
°C
Dew
Point
°C
Rel
Hum
%
Delta-T
°C
Wind Press
QNH
hPa
Press
MSL
hPa
Rain since
9am
mm
Dir  Spd
km/h
Gust
km/h
Spd
kts
Gust
kts
01/06:00pm 12.0 - - - - WSW 20 22 11 12 - - -
01/05:30pm 12.2 - - - - W 22 28 12 15 - - -
01/05:00pm 12.0 - - - - WSW 24 30 13 16 - - -
01/04:30pm 12.1 - - - - W 24 30 13 16 - - -
01/04:00pm 12.6 - - - - W 24 30 13 16 - - -
01/03:30pm 12.4 - - - - W 26 30 14 16 - - -
01/03:00pm 12.2 - - - - W 24 30 13 16 - - -
01/02:30pm 11.9 - - - - W 24 30 13 16 - - -
01/02:00pm 11.7 - - - - WSW 24 32 13 17 - - -
01/01:30pm 11.8 - - - - W 20 28 11 15 - - -
01/01:00pm 12.1 - - - - WSW 20 26 11 14 - - -
01/12:30pm 12.4 - - - - W 20 30 11 16 - - -
01/12:00pm 12.8 - - - - WSW 17 20 9 11 - - -
01/11:30am 12.6 - - - - WSW 19 24 10 13 - - -
01/11:00am 12.6 - - - - WSW 19 20 10 11 - - -
01/10:30am 12.5 - - - - WSW 20 26 11 14 - - -
01/10:00am 12.5 - - - - WSW 20 24 11 13 - - -
01/09:30am 12.8 - - - - SW 20 28 11 15 - - -
01/09:00am 12.9 - - - - SW 19 24 10 13 - - -
01/08:30am 12.8 - - - - WSW 19 24 10 13 - - -
01/08:00am 13.3 - - - - S 26 30 14 16 - - -
01/07:30am 13.1 - - - - SSW 22 28 12 15 - - -
01/07:00am 12.9 - - - - SSW 26 30 14 16 - - -
01/06:30am 12.5 - - - - SW 24 30 13 16 - - -
01/06:00am 12.5 - - - - SW 26 32 14 17 - - -
01/05:30am 12.4 - - - - WSW 20 28 11 15 - - -
01/05:00am 12.0 - - - - WSW 20 26 11 14 - - -
01/04:30am 12.2 - - - - W 22 28 12 15 - - -
01/04:00am 12.0 - - - - WSW 17 20 9 11 - - -
01/03:30am 12.8 - - - - SW 17 26 9 14 - - -
01/03:00am 12.4 - - - - WSW 17 19 9 10 - - -
01/02:30am 12.7 - - - - WSW 11 17 6 9 - - -
01/02:00am 13.4 - - - - SW 13 19 7 10 - - -
01/01:30am 14.2 - - - - WSW 11 15 6 8 - - -
01/01:00am 13.9 - - - - WSW 15 19 8 10 - - -
01/12:30am 14.0 - - - - SW 20 24 11 13 - - -
01/12:00am 14.4 - - - - WSW 19 24 10 13 - - -
 
Date/Time
EST
Temp
°C
App
Temp
°C
Dew
Point
°C
Rel
Hum
%
Delta-T
°C
Wind Press
QNH
hPa
Press
MSL
hPa
Rain since
9am
mm
Dir  Spd
km/h
Gust
km/h
Spd
kts
Gust
kts
30/11:30pm 14.2 - - - - WSW 17 20 9 11 - - -
30/11:00pm 14.5 - - - - WSW 17 22 9 12 - - -
30/10:30pm 14.9 - - - - WSW 17 20 9 11 - - -
30/10:00pm 15.0 - - - - WSW 17 20 9 11 - - -
30/09:30pm 15.4 - - - - WSW 17 22 9 12 - - -
30/09:00pm 15.5 - - - - SW 20 24 11 13 - - -
30/08:30pm 15.4 - - - - W 15 20 8 11 - - -
30/08:00pm 15.6 - - - - WSW 13 17 7 9 - - -
30/07:30pm 15.7 - - - - WSW 13 15 7 8 - - -
30/07:00pm 15.7 - - - - WSW 9 13 5 7 - - -
30/06:30pm 15.9 - - - - WSW 13 15 7 8 - - -
30/06:00pm 16.0 - - - - WSW 13 15 7 8 - - -
30/05:30pm 16.3 - - - - SSW 17 20 9 11 - - -
30/05:00pm 16.3 - - - - SSW 17 20 9 11 - - -
30/04:30pm 16.4 - - - - SSW 17 20 9 11 - - -
30/04:00pm 16.5 - - - - SSW 19 24 10 13 - - -
30/03:30pm 16.3 - - - - SSW 17 20 9 11 - - -
30/03:00pm 16.5 - - - - S 19 22 10 12 - - -
30/02:30pm 16.4 - - - - S 13 17 7 9 - - -
30/02:00pm 16.4 - - - - SSW 11 13 6 7 - - -
30/01:30pm 16.2 - - - - W 9 13 5 7 - - -
30/01:00pm 16.0 - - - - WSW 11 15 6 8 - - -
30/12:30pm 16.0 - - - - SW 15 20 8 11 - - -
30/12:00pm 15.6 - - - - WSW 15 20 8 11 - - -
30/11:30am 15.3 - - - - WSW 22 28 12 15 - - -
30/11:00am 14.8 - - - - WSW 22 30 12 16 - - -
30/10:30am 14.3 - - - - WSW 19 24 10 13 - - -
30/10:00am 14.1 - - - - W 17 22 9 12 - - -
30/09:30am 13.9 - - - - W 15 19 8 10 - - -
30/09:00am 13.4 - - - - WSW 15 20 8 11 - - -
30/08:30am 13.0 - - - - WSW 15 20 8 11 - - -
30/08:00am 12.4 - - - - WSW 19 24 10 13 - - -
30/07:30am 12.4 - - - - WSW 15 20 8 11 - - -
30/07:00am 12.4 - - - - WSW 11 13 6 7 - - -
30/06:30am 12.7 - - - - WSW 13 15 7 8 - - -
30/06:00am 13.1 - - - - W 11 15 6 8 - - -
30/05:30am 13.5 - - - - W 11 15 6 8 - - -
30/05:00am 13.7 - - - - WSW 9 13 5 7 - - -
30/04:30am 13.7 - - - - NW 20 26 11 14 - - -
30/04:00am 13.5 - - - - NNW 19 28 10 15 - - -
30/03:30am 13.6 - - - - NNW 17 26 9 14 - - -
30/03:00am 13.7 - - - - NNW 20 24 11 13 - - -
30/02:30am 14.3 - - - - NW 20 24 11 13 - - -
30/02:00am 13.9 - - - - NW 11 17 6 9 - - -
30/01:30am 13.8 - - - - NW 17 20 9 11 - - -
30/01:00am 13.8 - - - - NNW 20 26 11 14 - - -
30/12:30am 14.0 - - - - NW 20 26 11 14 - - -
30/12:00am 13.6 - - - - WNW 7 9 4 5 - - -
 
Date/Time
EST
Temp
°C
App
Temp
°C
Dew
Point
°C
Rel
Hum
%
Delta-T
°C
Wind Press
QNH
hPa
Press
MSL
hPa
Rain since
9am
mm
Dir  Spd
km/h
Gust
km/h
Spd
kts
Gust
kts
29/11:30pm 13.6 - - - - W 11 15 6 8 - - -
29/11:00pm 14.3 - - - - WNW 17 22 9 12 - - -
29/10:30pm 14.1 - - - - WNW 17 20 9 11 - - -
29/10:00pm 14.2 - - - - NW 20 28 11 15 - - -
29/09:30pm 14.3 - - - - NW 17 26 9 14 - - -
29/09:00pm 14.6 - - - - NNW 19 24 10 13 - - -
29/08:30pm 14.6 - - - - NNW 22 28 12 15 - - -
29/08:00pm 14.6 - - - - NNW 15 17 8 9 - - -
29/07:30pm 14.9 - - - - N 13 19 7 10 - - -
29/07:00pm 15.1 - - - - N 9 15 5 8 - - -
29/06:30pm 15.3 - - - - NNW 11 17 6 9 - - -
29/06:00pm 15.7 - - - - N 11 17 6 9 - - -
29/05:30pm 15.5 - - - - NNW 9 11 5 6 - - -
29/05:00pm 15.9 - - - - NNW 11 13 6 7 - - -
29/04:30pm 16.3 - - - - N 13 17 7 9 - - -
29/04:00pm 16.5 - - - - N 17 24 9 13 - - -
29/03:30pm 16.7 - - - - N 20 24 11 13 - - -
29/03:00pm 16.8 - - - - N 24 35 13 19 - - -
29/02:30pm 16.7 - - - - N 26 35 14 19 - - -
29/02:00pm 16.5 - - - - N 22 32 12 17 - - -
29/01:30pm 16.5 - - - - N 24 32 13 17 - - -
29/01:00pm 16.6 - - - - N 22 32 12 17 - - -
29/12:30pm 16.5 - - - - N 24 32 13 17 - - -
29/12:00pm 16.2 - - - - NNW 15 20 8 11 - - -
29/11:30am 14.5 - - - - SW 15 20 8 11 - - -
29/11:00am 13.6 - - - - WSW 19 24 10 13 - - -
29/10:30am 13.4 - - - - W 19 24 10 13 - - -
29/10:00am 13.3 - - - - W 19 22 10 12 - - -
29/09:30am 13.1 - - - - WSW 9 13 5 7 - - -
29/09:00am 12.6 - - - - WSW 7 9 4 5 - - -
29/08:30am 12.1 - - - - W 11 13 6 7 - - -
29/08:00am 11.2 - - - - W 9 11 5 6 - - -
29/07:30am 11.4 - - - - WSW 7 9 4 5 - - -
29/07:00am 11.5 - - - - SW 13 17 7 9 - - -
29/06:30am 11.7 - - - - WSW 9 11 5 6 - - -
29/06:00am 11.3 - - - - SW 11 13 6 7 - - -
29/05:30am 11.1 - - - - WSW 9 11 5 6 - - -
29/05:00am 11.2 - - - - W 15 19 8 10 - - -
29/04:30am 11.5 - - - - WSW 13 19 7 10 - - -
29/04:00am 11.2 - - - - WSW 15 20 8 11 - - -
29/03:30am 11.4 - - - - WSW 13 20 7 11 - - -
29/03:00am 11.5 - - - - W 9 13 5 7 - - -
29/02:30am 11.9 - - - - W 17 20 9 11 - - -
29/02:00am 12.2 - - - - W 19 20 10 11 - - -
29/01:30am 12.4 - - - - W 15 20 8 11 - - -
29/01:00am 12.8 - - - - W 19 24 10 13 - - -
29/12:30am 12.5 - - - - W 15 19 8 10 - - -
29/12:00am 12.7 - - - - WSW 20 26 11 14 - - -
 
Date/Time
EST
Temp
°C
App
Temp
°C
Dew
Point
°C
Rel
Hum
%
Delta-T
°C
Wind Press
QNH
hPa
Press
MSL
hPa
Rain since
9am
mm
Dir  Spd
km/h
Gust
km/h
Spd
kts
Gust
kts
28/11:30pm 12.3 - - - - W 22 28 12 15 - - -
28/11:00pm 12.1 - - - - W 17 20 9 11 - - -
28/10:30pm 12.5 - - - - W 13 17 7 9 - - -
28/10:00pm 12.6 - - - - W 15 17 8 9 - - -
28/09:30pm 12.8 - - - - W 17 20 9 11 - - -
28/09:00pm 12.8 - - - - WSW 19 24 10 13 - - -
28/08:30pm 13.1 - - - - SW 22 26 12 14 - - -
28/08:00pm 13.2 - - - - WSW 15 20 8 11 - - -
28/07:30pm 12.9 - - - - SW 20 26 11 14 - - -
28/07:00pm 12.9 - - - - WSW 24 32 13 17 - - -
28/06:30pm 12.6 - - - - SW 20 24 11 13 - - -

Other formats

Comma delimited format used in spreadsheet applications
http://www.bom.gov.au/fwo/IDN60801/IDN60801.95766.axf

JavaScript Object Notation format (JSON) in row-major order
http://www.bom.gov.au/fwo/IDN60801/IDN60801.95766.json

Data quality

Most of these data are generated automatically and are frequently updated. Quality checks on data are not normally performed. It is possible for incorrect values to appear. Refer to information at About Latest Weather Observations and please check the disclaimer before using these data.